Strona główna
METAR-TAF:

METAR-TAF

Lotnisko :

Olean, Nowy Jork, Stany Zjednoczone

Szerokość geograficzna: 42-14-28N, Długość geograficzna: 078-22-17W, wysokość: 651 m

Aktualna obserwacja pogody

Raport powstał 15 minut temu, godzina 22:15 UTC
Wiatr 9 kt od południe
Temperatura -3°C
Wilgotność 50%
Ciśnienie 1030 hPa
Widzialność: 16.1 km
bezchmurnie

METAR: KOLE 122215Z AUTO 18009KT 10SM CLR M03/M12 A3041 RMK AO2

czas: 17:30 (22:30 UTC)


TAF: brakujący

Obserwacja i prognoza pogody dla ponad 4000 lotnisk (raport METAR i TAF).

Dostępne stacje oznaczono żółtymi i czerwonymi punktami na mapie.

Najedź kursorem aby zobaczyć nazwę stacji.

Kliknij aby zobaczyć obserwacje i prognozy pogody.

Aby zmienić mapę: kliknij na zielony przycisk z czarnym krzyżykiem, aby powiększyć; na zielony przycisk z myślnikiem, aby pomniejszyć; na zielone strzałki, aby przejść do map sąsiednich.


METAR-TAF: